Time;durP1;ratioP1;P1;durP2;ratioP2;P2;SDS_P1;SDS_P2;PMS_P1;PMS_P2;Temp;Humidity;BMP_temperature;BMP_pressure;BME280_temperature;BME280_humidity;BME280_pressure;Samples;Min_cycle;Max_cycle;Signal;HPM_P1;HPM_P2
2022/04/19 00:00:35;;;;;;;0.80;0.80;;;;;;;;;;5097637;28;20615;-75
2022/04/19 00:03:04;;;;;;;0.80;0.80;;;;;;;;;;5117022;28;20642;-75
2022/04/19 00:05:36;;;;;;;0.80;0.70;;;;;;;;;;5098578;28;20549;-75
2022/04/19 00:08:03;;;;;;;0.70;0.70;;;;;;;;;;5101356;28;20275;-75
2022/04/19 00:10:29;;;;;;;0.80;0.80;;;;;;;;;;5098461;28;20200;-75
2022/04/19 00:12:57;;;;;;;0.80;0.80;;;;;;;;;;5116163;28;20651;-75
2022/04/19 00:15:27;;;;;;;0.80;0.80;;;;;;;;;;5115377;28;20206;-75
2022/04/19 00:17:55;;;;;;;0.80;0.80;;;;;;;;;;5097676;28;20207;-75
2022/04/19 00:20:23;;;;;;;0.80;0.73;;;;;;;;;;5098012;28;20200;-75
2022/04/19 00:22:51;;;;;;;0.75;0.65;;;;;;;;;;5116125;28;20343;-75
2022/04/19 00:25:18;;;;;;;0.80;0.80;;;;;;;;;;5116163;28;20544;-75
2022/04/19 00:27:46;;;;;;;0.80;0.80;;;;;;;;;;5097837;28;20652;-75
2022/04/19 00:30:13;;;;;;;0.75;0.70;;;;;;;;;;5097367;28;20290;-75
2022/04/19 00:32:41;;;;;;;0.80;0.80;;;;;;;;;;5114420;28;20192;-75
2022/04/19 00:35:09;;;;;;;0.70;0.70;;;;;;;;;;5097438;28;20666;-75
2022/04/19 00:37:36;;;;;;;0.80;0.80;;;;;;;;;;5115272;28;20203;-75
2022/04/19 00:40:06;;;;;;;0.70;0.70;;;;;;;;;;5115569;28;20188;-75
2022/04/19 00:42:34;;;;;;;0.80;0.70;;;;;;;;;;5098166;28;20180;-75
2022/04/19 00:45:03;;;;;;;0.80;0.70;;;;;;;;;;5115607;28;20194;-75
2022/04/19 00:47:32;;;;;;;0.73;0.70;;;;;;;;;;5114443;28;20183;-75
2022/04/19 00:50:05;;;;;;;0.80;0.70;;;;;;;;;;5097281;28;20195;-75
2022/04/19 00:52:37;;;;;;;0.70;0.70;;;;;;;;;;5097168;28;20211;-75
2022/04/19 00:55:08;;;;;;;0.80;0.80;;;;;;;;;;5096769;28;20559;-75
2022/04/19 00:57:40;;;;;;;0.75;0.70;;;;;;;;;;5082195;28;20589;-75
2022/04/19 01:00:12;;;;;;;0.80;0.70;;;;;;;;;;5131552;27;20210;-75
2022/04/19 01:02:58;;;;;;;0.80;0.80;;;;;;;;;;5097253;28;20617;-76
2022/04/19 01:05:33;;;;;;;0.70;0.70;;;;;;;;;;5094650;28;20237;-75
2022/04/19 01:08:01;;;;;;;0.80;0.80;;;;;;;;;;5091296;28;20686;-75
2022/04/19 01:10:35;;;;;;;0.80;0.70;;;;;;;;;;5079857;28;20195;-75
2022/04/19 01:13:17;;;;;;;0.80;0.80;;;;;;;;;;5079455;28;20627;-74
2022/04/19 01:15:56;;;;;;;0.80;0.80;;;;;;;;;;5080963;28;20196;-74
2022/04/19 01:18:24;;;;;;;0.80;0.80;;;;;;;;;;5079589;28;20212;-74
2022/04/19 01:21:00;;;;;;;0.80;0.75;;;;;;;;;;5081011;28;20279;-73
2022/04/19 01:23:31;;;;;;;1.45;1.35;;;;;;;;;;5095888;28;20728;-73
2022/04/19 01:26:00;;;;;;;0.70;0.60;;;;;;;;;;5079795;28;20282;-73
2022/04/19 01:28:29;;;;;;;0.70;0.70;;;;;;;;;;5114390;27;20187;-73
2022/04/19 01:30:58;;;;;;;0.80;0.80;;;;;;;;;;5112879;27;20794;-73
2022/04/19 01:33:35;;;;;;;0.70;0.60;;;;;;;;;;5098949;28;20561;-75
2022/04/19 01:36:08;;;;;;;0.80;0.80;;;;;;;;;;5080413;28;20581;-73
2022/04/19 01:38:40;;;;;;;0.70;0.70;;;;;;;;;;5114092;27;20215;-73
2022/04/19 01:41:08;;;;;;;0.73;0.70;;;;;;;;;;5096460;28;20195;-73
2022/04/19 01:43:48;;;;;;;0.80;0.70;;;;;;;;;;5096990;28;20191;-75
2022/04/19 01:46:23;;;;;;;0.80;0.70;;;;;;;;;;5079640;28;20188;-75
2022/04/19 01:48:51;;;;;;;0.80;0.80;;;;;;;;;;5095419;28;20274;-75
2022/04/19 01:51:20;;;;;;;0.77;0.75;;;;;;;;;;5096205;28;20211;-75
2022/04/19 01:53:49;;;;;;;0.73;0.70;;;;;;;;;;5096362;28;20188;-75
2022/04/19 01:56:24;;;;;;;0.93;0.93;;;;;;;;;;5096493;28;20205;-76
2022/04/19 01:59:16;;;;;;;0.90;0.90;;;;;;;;;;5096485;28;20226;-75
2022/04/19 02:01:58;;;;;;;0.70;0.70;;;;;;;;;;5096122;28;20187;-75
2022/04/19 02:04:25;;;;;;;0.80;0.70;;;;;;;;;;5096384;28;20644;-75
2022/04/19 02:06:53;;;;;;;0.70;0.70;;;;;;;;;;5098153;28;20218;-75
2022/04/19 02:09:22;;;;;;;0.80;0.77;;;;;;;;;;5080626;28;20195;-75
2022/04/19 02:11:50;;;;;;;0.80;0.70;;;;;;;;;;5096630;28;20531;-75
2022/04/19 02:14:31;;;;;;;0.80;0.75;;;;;;;;;;5096764;28;20604;-73
2022/04/19 02:16:59;;;;;;;0.80;0.70;;;;;;;;;;5128096;27;20200;-73
2022/04/19 02:19:26;;;;;;;0.80;0.70;;;;;;;;;;5095501;28;20271;-73
2022/04/19 02:21:54;;;;;;;0.80;0.75;;;;;;;;;;5113936;28;20206;-74
2022/04/19 02:24:21;;;;;;;0.80;0.70;;;;;;;;;;5095368;28;20244;-73
2022/04/19 02:26:49;;;;;;;0.90;0.90;;;;;;;;;;5095383;28;20180;-74
2022/04/19 02:29:16;;;;;;;0.80;0.70;;;;;;;;;;5096563;28;20188;-73
2022/04/19 02:31:47;;;;;;;0.70;0.60;;;;;;;;;;5096291;28;20198;-74
2022/04/19 02:34:18;;;;;;;0.70;0.70;;;;;;;;;;5094154;28;20210;-75
2022/04/19 02:36:46;;;;;;;0.77;0.70;;;;;;;;;;5095434;28;20211;-74
2022/04/19 02:39:13;;;;;;;0.80;0.80;;;;;;;;;;5096253;28;20297;-74
2022/04/19 02:41:41;;;;;;;0.80;0.70;;;;;;;;;;5096306;28;20195;-74
2022/04/19 02:44:09;;;;;;;0.80;0.80;;;;;;;;;;5112199;28;20194;-74
2022/04/19 02:46:37;;;;;;;0.70;0.65;;;;;;;;;;5095836;28;20256;-74
2022/04/19 02:49:07;;;;;;;0.80;0.70;;;;;;;;;;5107192;28;20204;-74
2022/04/19 02:51:34;;;;;;;0.80;0.80;;;;;;;;;;5095027;28;20211;-74
2022/04/19 02:54:01;;;;;;;0.80;0.80;;;;;;;;;;5095468;28;20214;-74
2022/04/19 02:56:27;;;;;;;0.75;0.70;;;;;;;;;;5096172;28;20240;-75
2022/04/19 02:58:57;;;;;;;0.80;0.80;;;;;;;;;;5096230;28;20276;-73
2022/04/19 03:01:25;;;;;;;0.75;0.73;;;;;;;;;;5095707;28;20260;-73
2022/04/19 03:03:53;;;;;;;0.75;0.70;;;;;;;;;;5094656;28;20214;-73
2022/04/19 03:06:21;;;;;;;0.70;0.60;;;;;;;;;;5095339;28;20224;-74
2022/04/19 03:08:48;;;;;;;0.80;0.70;;;;;;;;;;5095912;28;20192;-74
2022/04/19 03:11:15;;;;;;;0.82;0.80;;;;;;;;;;5078886;28;20214;-74
2022/04/19 03:13:43;;;;;;;0.80;0.70;;;;;;;;;;5115676;28;20267;-75
2022/04/19 03:16:16;;;;;;;0.80;0.80;;;;;;;;;;5095647;28;20274;-74
2022/04/19 03:18:43;;;;;;;0.80;0.80;;;;;;;;;;5074295;28;20206;-73
2022/04/19 03:21:10;;;;;;;0.80;0.73;;;;;;;;;;5077574;28;20220;-76
2022/04/19 03:29:12;;;;;;;0.80;0.70;;;;;;;;;;5129301;28;20241;-74
2022/04/19 03:31:43;;;;;;;0.70;0.60;;;;;;;;;;5095971;28;20195;-74
2022/04/19 03:34:11;;;;;;;0.70;0.70;;;;;;;;;;5081192;28;20201;-74
2022/04/19 03:36:44;;;;;;;0.80;0.80;;;;;;;;;;5112177;27;20219;-74
2022/04/19 03:39:11;;;;;;;0.70;0.60;;;;;;;;;;5099564;28;20207;-74
2022/04/19 03:41:38;;;;;;;0.70;0.68;;;;;;;;;;5098956;28;20300;-74
2022/04/19 03:44:07;;;;;;;0.77;0.70;;;;;;;;;;5098832;28;20187;-74
2022/04/19 03:47:07;;;;;;;0.70;0.70;;;;;;;;;;5130644;27;20286;-74
2022/04/19 03:49:28;;;;;;;0.75;0.70;;;;;;;;;;5099268;28;20191;-76
2022/04/19 03:51:56;;;;;;;1.10;1.00;;;;;;;;;;5098818;28;20211;-74
2022/04/19 03:54:23;;;;;;;0.70;0.70;;;;;;;;;;5098158;28;20695;-75
2022/04/19 03:56:50;;;;;;;0.80;0.80;;;;;;;;;;5098461;28;20198;-75
2022/04/19 03:59:20;;;;;;;0.73;0.70;;;;;;;;;;5092560;28;20202;-74
2022/04/19 04:01:46;;;;;;;0.70;0.70;;;;;;;;;;5129899;27;20721;-73
2022/04/19 04:04:14;;;;;;;0.82;0.82;;;;;;;;;;5115637;28;20585;-74
2022/04/19 04:06:44;;;;;;;0.80;0.80;;;;;;;;;;5110551;28;20801;-74
2022/04/19 04:09:10;;;;;;;0.80;0.73;;;;;;;;;;5114905;28;20192;-74
2022/04/19 04:11:37;;;;;;;0.80;0.80;;;;;;;;;;5098939;28;20223;-74
2022/04/19 04:14:18;;;;;;;0.70;0.70;;;;;;;;;;5114604;28;20870;-74
2022/04/19 04:16:46;;;;;;;0.70;0.60;;;;;;;;;;5081540;28;20203;-74
2022/04/19 04:19:12;;;;;;;0.70;0.70;;;;;;;;;;5097602;28;20204;-74
2022/04/19 04:21:39;;;;;;;0.80;0.80;;;;;;;;;;5097803;28;20580;-75
2022/04/19 04:24:08;;;;;;;0.80;0.70;;;;;;;;;;5097784;28;20194;-75
2022/04/19 04:26:41;;;;;;;0.70;0.70;;;;;;;;;;5097985;28;20237;-74
2022/04/19 04:29:09;;;;;;;0.80;0.80;;;;;;;;;;5098014;28;20275;-74
2022/04/19 04:31:38;;;;;;;0.70;0.60;;;;;;;;;;5097112;28;20591;-75
2022/04/19 04:34:10;;;;;;;0.80;0.70;;;;;;;;;;5132105;27;20195;-75
2022/04/19 04:36:37;;;;;;;0.70;0.70;;;;;;;;;;5097962;28;20269;-75
2022/04/19 04:39:04;;;;;;;0.70;0.70;;;;;;;;;;5097569;28;20314;-75
2022/04/19 04:41:45;;;;;;;0.80;0.80;;;;;;;;;;5097983;28;20199;-75
2022/04/19 04:44:16;;;;;;;0.80;0.80;;;;;;;;;;5080705;28;20223;-75
2022/04/19 04:49:35;;;;;;;0.80;0.70;;;;;;;;;;5098179;28;20195;-74
2022/04/19 04:52:02;;;;;;;0.70;0.60;;;;;;;;;;5097009;28;20693;-73
2022/04/19 04:54:34;;;;;;;0.80;0.80;;;;;;;;;;5096645;28;20200;-73
2022/04/19 04:57:04;;;;;;;0.80;0.70;;;;;;;;;;5115068;28;20837;-74
2022/04/19 04:59:32;;;;;;;0.80;0.70;;;;;;;;;;5097775;28;20208;-74
2022/04/19 05:02:00;;;;;;;0.80;0.80;;;;;;;;;;5097013;28;20205;-74
2022/04/19 05:04:27;;;;;;;0.77;0.70;;;;;;;;;;5097468;28;20197;-74
2022/04/19 05:06:56;;;;;;;0.70;0.65;;;;;;;;;;5102882;28;20211;-75
2022/04/19 05:09:26;;;;;;;0.80;0.73;;;;;;;;;;5096463;28;20596;-74
2022/04/19 05:11:53;;;;;;;0.77;0.70;;;;;;;;;;5096918;28;20198;-75
2022/04/19 05:14:27;;;;;;;0.70;0.70;;;;;;;;;;5109813;28;20187;-74
2022/04/19 05:16:54;;;;;;;0.80;0.80;;;;;;;;;;5096688;28;20200;-74
2022/04/19 05:19:21;;;;;;;0.73;0.70;;;;;;;;;;5097336;28;20614;-74
2022/04/19 05:21:48;;;;;;;0.70;0.68;;;;;;;;;;5096560;28;20248;-74
2022/04/19 05:24:15;;;;;;;0.70;0.70;;;;;;;;;;5096691;28;20533;-74
2022/04/19 05:26:43;;;;;;;0.70;0.60;;;;;;;;;;5096969;28;20226;-74
2022/04/19 05:29:10;;;;;;;0.70;0.70;;;;;;;;;;5095933;28;20656;-74
2022/04/19 05:31:39;;;;;;;0.70;0.63;;;;;;;;;;5097233;28;20249;-74
2022/04/19 05:34:06;;;;;;;0.75;0.70;;;;;;;;;;5097178;28;20186;-74
2022/04/19 05:36:35;;;;;;;0.80;0.70;;;;;;;;;;5113641;28;20298;-74
2022/04/19 05:39:02;;;;;;;0.75;0.75;;;;;;;;;;5098048;28;20222;-74
2022/04/19 05:41:31;;;;;;;0.75;0.73;;;;;;;;;;5097328;28;20196;-73
2022/04/19 05:43:58;;;;;;;0.80;0.70;;;;;;;;;;5096166;28;20195;-74
2022/04/19 05:46:25;;;;;;;0.70;0.70;;;;;;;;;;5094972;28;20286;-74
2022/04/19 05:48:55;;;;;;;0.80;0.80;;;;;;;;;;5097116;28;20191;-74
2022/04/19 05:51:21;;;;;;;0.80;0.70;;;;;;;;;;5096456;28;20214;-74
2022/04/19 05:53:49;;;;;;;0.80;0.70;;;;;;;;;;5132396;27;20175;-74
2022/04/19 05:56:20;;;;;;;0.80;0.80;;;;;;;;;;5095807;28;20199;-74
2022/04/19 05:58:49;;;;;;;0.90;0.90;;;;;;;;;;5095844;28;20207;-74
2022/04/19 06:01:15;;;;;;;0.80;0.80;;;;;;;;;;5099296;28;20187;-73
2022/04/19 06:06:31;;;;;;;0.77;0.70;;;;;;;;;;5096522;28;20614;-75
2022/04/19 06:08:58;;;;;;;0.70;0.60;;;;;;;;;;5095707;28;20240;-73
2022/04/19 06:11:26;;;;;;;0.80;0.70;;;;;;;;;;5095635;28;20188;-73
2022/04/19 06:13:53;;;;;;;0.88;0.88;;;;;;;;;;5095545;28;20203;-75
2022/04/19 06:16:21;;;;;;;0.80;0.70;;;;;;;;;;5097978;28;20199;-73
2022/04/19 06:18:52;;;;;;;0.70;0.60;;;;;;;;;;5106716;28;20210;-74
2022/04/19 06:21:22;;;;;;;0.70;0.60;;;;;;;;;;5092999;28;20307;-76
2022/04/19 06:23:52;;;;;;;0.70;0.70;;;;;;;;;;5094966;28;20236;-75
2022/04/19 06:26:19;;;;;;;0.70;0.60;;;;;;;;;;5095192;28;20240;-75
2022/04/19 06:28:50;;;;;;;0.70;0.70;;;;;;;;;;5075369;28;20645;-75
2022/04/19 06:31:40;;;;;;;0.70;0.70;;;;;;;;;;5127905;27;20278;-75
2022/04/19 06:34:23;;;;;;;0.70;0.60;;;;;;;;;;5096019;28;20202;-75
2022/04/19 06:36:57;;;;;;;0.70;0.60;;;;;;;;;;5095935;28;20219;-75
2022/04/19 06:39:25;;;;;;;0.70;0.60;;;;;;;;;;5095210;28;20297;-75
2022/04/19 06:41:54;;;;;;;0.80;0.77;;;;;;;;;;5094306;28;20195;-76
2022/04/19 06:44:22;;;;;;;0.80;0.70;;;;;;;;;;5095409;28;20202;-75
2022/04/19 06:46:59;;;;;;;0.80;0.70;;;;;;;;;;5095066;28;20195;-76
2022/04/19 06:49:27;;;;;;;0.70;0.60;;;;;;;;;;5113621;28;20175;-73
2022/04/19 06:51:54;;;;;;;0.70;0.60;;;;;;;;;;5097816;28;20260;-74
2022/04/19 06:54:21;;;;;;;0.70;0.60;;;;;;;;;;5128550;27;20188;-73
2022/04/19 06:56:51;;;;;;;0.77;0.70;;;;;;;;;;5094921;28;20525;-73
2022/04/19 06:59:21;;;;;;;0.70;0.60;;;;;;;;;;5094818;28;20992;-75
2022/04/19 07:01:50;;;;;;;0.70;0.60;;;;;;;;;;5090634;28;20481;-75
2022/04/19 07:04:32;;;;;;;0.70;0.60;;;;;;;;;;5099513;28;20434;-74
2022/04/19 07:07:03;;;;;;;0.70;0.60;;;;;;;;;;5081074;28;20476;-75
2022/04/19 07:09:31;;;;;;;0.70;0.60;;;;;;;;;;5096397;28;20895;-75
2022/04/19 07:12:02;;;;;;;0.90;0.80;;;;;;;;;;5100821;28;20793;-75
2022/04/19 07:14:36;;;;;;;0.70;0.60;;;;;;;;;;5099361;28;20439;-75
2022/04/19 07:17:08;;;;;;;0.70;0.60;;;;;;;;;;5099880;28;20487;-75
2022/04/19 07:28:03;;;;;;;0.80;0.70;;;;;;;;;;5098651;28;20445;-74
2022/04/19 07:30:43;;;;;;;0.80;0.70;;;;;;;;;;5099001;28;20499;-76
2022/04/19 07:33:11;;;;;;;1.73;0.97;;;;;;;;;;5117348;27;20432;-75
2022/04/19 07:35:46;;;;;;;0.80;0.77;;;;;;;;;;5099294;28;20448;-77
2022/04/19 07:38:13;;;;;;;1.20;1.10;;;;;;;;;;5130431;27;20442;-76
2022/04/19 07:40:55;;;;;;;0.80;0.77;;;;;;;;;;5098698;28;20495;-73
2022/04/19 07:43:26;;;;;;;1.00;0.80;;;;;;;;;;5099731;28;20434;-76
2022/04/19 07:45:53;;;;;;;0.90;0.80;;;;;;;;;;5098850;28;20961;-74
2022/04/19 07:48:22;;;;;;;0.80;0.70;;;;;;;;;;5098932;28;20437;-73
2022/04/19 07:50:49;;;;;;;0.80;0.73;;;;;;;;;;5098234;28;20452;-73
2022/04/19 07:53:16;;;;;;;0.80;0.80;;;;;;;;;;5098151;28;20427;-73
2022/04/19 07:55:43;;;;;;;0.80;0.67;;;;;;;;;;5098310;28;20440;-75
2022/04/19 07:58:11;;;;;;;0.80;0.70;;;;;;;;;;5133341;27;20433;-75
2022/04/19 08:00:39;;;;;;;0.80;0.60;;;;;;;;;;5097823;28;20980;-76
2022/04/19 08:03:06;;;;;;;1.43;1.33;;;;;;;;;;5098435;28;20437;-76
2022/04/19 08:05:33;;;;;;;0.70;0.60;;;;;;;;;;5098149;28;20471;-75
2022/04/19 08:08:00;;;;;;;0.80;0.70;;;;;;;;;;5115439;28;20517;-73
2022/04/19 08:10:27;;;;;;;0.80;0.67;;;;;;;;;;5115690;28;20422;-74
2022/04/19 08:12:54;;;;;;;1.20;1.10;;;;;;;;;;5097376;28;20450;-75
2022/04/19 08:15:24;;;;;;;1.23;1.03;;;;;;;;;;5083183;28;20433;-76
2022/04/19 08:17:53;;;;;;;0.90;0.70;;;;;;;;;;5099401;28;20422;-75
2022/04/19 08:20:20;;;;;;;1.20;1.10;;;;;;;;;;5098718;28;21816;-74
2022/04/19 08:22:48;;;;;;;0.80;0.80;;;;;;;;;;5099149;28;20461;-76
2022/04/19 08:25:22;;;;;;;0.80;0.70;;;;;;;;;;5100700;28;20450;-75
2022/04/19 08:27:51;;;;;;;1.20;1.10;;;;;;;;;;5131482;27;20483;-76
2022/04/19 08:30:18;;;;;;;0.80;0.70;;;;;;;;;;5097807;28;20512;-75
2022/04/19 08:32:48;;;;;;;0.73;0.70;;;;;;;;;;5097720;28;20926;-74
2022/04/19 08:35:18;;;;;;;1.10;0.87;;;;;;;;;;5116720;28;20387;-74
2022/04/19 08:37:46;;;;;;;0.80;0.70;;;;;;;;;;5097881;28;20847;-75
2022/04/19 08:40:14;;;;;;;0.80;0.70;;;;;;;;;;5080512;28;20496;-73
2022/04/19 08:42:43;;;;;;;0.80;0.80;;;;;;;;;;5114217;28;20425;-77
2022/04/19 08:45:11;;;;;;;0.80;0.70;;;;;;;;;;5116871;28;20384;-74
2022/04/19 08:47:41;;;;;;;0.70;0.60;;;;;;;;;;5099447;28;20452;-75
2022/04/19 08:50:10;;;;;;;0.80;0.70;;;;;;;;;;5099038;28;20392;-75
2022/04/19 08:52:38;;;;;;;1.00;0.87;;;;;;;;;;5081532;28;20477;-73
2022/04/19 08:57:54;;;;;;;2.60;1.17;;;;;;;;;;5112485;28;20465;-75
2022/04/19 09:00:24;;;;;;;1.10;1.00;;;;;;;;;;5117551;28;20469;-76
2022/04/19 09:02:53;;;;;;;0.93;0.83;;;;;;;;;;5097786;28;20966;-74
2022/04/19 09:05:21;;;;;;;0.83;0.83;;;;;;;;;;5096982;28;20441;-74
2022/04/19 09:07:50;;;;;;;0.80;0.80;;;;;;;;;;5115621;28;20461;-75
2022/04/19 09:10:24;;;;;;;0.80;0.73;;;;;;;;;;5095355;28;20444;-74
2022/04/19 09:12:57;;;;;;;0.80;0.60;;;;;;;;;;5115095;28;20453;-74
2022/04/19 09:15:30;;;;;;;0.70;0.50;;;;;;;;;;5115352;28;20425;-75
2022/04/19 09:17:57;;;;;;;0.90;0.60;;;;;;;;;;5097032;28;20516;-76
2022/04/19 09:20:24;;;;;;;0.73;0.60;;;;;;;;;;5113168;28;20473;-75
2022/04/19 09:23:02;;;;;;;0.70;0.60;;;;;;;;;;5114688;28;20563;-74
2022/04/19 09:25:32;;;;;;;3.03;1.50;;;;;;;;;;5114579;28;20418;-75
2022/04/19 09:27:59;;;;;;;0.70;0.67;;;;;;;;;;5096680;28;20437;-75
2022/04/19 09:30:27;;;;;;;1.10;0.80;;;;;;;;;;5113691;28;20438;-75
2022/04/19 09:33:01;;;;;;;0.83;0.70;;;;;;;;;;5116224;28;20482;-78
2022/04/19 09:35:29;;;;;;;1.07;0.70;;;;;;;;;;5097510;28;20895;-74
2022/04/19 09:37:56;;;;;;;1.53;1.17;;;;;;;;;;5097083;28;20512;-76
2022/04/19 09:40:28;;;;;;;0.70;0.60;;;;;;;;;;5096371;28;20465;-75
2022/04/19 09:42:55;;;;;;;1.20;0.70;;;;;;;;;;5097507;28;20513;-75
2022/04/19 09:45:22;;;;;;;2.17;2.07;;;;;;;;;;5076954;28;20816;-76
2022/04/19 09:47:53;;;;;;;0.80;0.70;;;;;;;;;;5115736;28;20822;-76
2022/04/19 09:50:21;;;;;;;0.70;0.50;;;;;;;;;;5114327;28;20441;-75
2022/04/19 09:52:50;;;;;;;1.07;0.97;;;;;;;;;;5114115;28;20445;-75
2022/04/19 09:55:18;;;;;;;0.70;0.60;;;;;;;;;;5096473;28;20420;-76
2022/04/19 09:57:47;;;;;;;0.80;0.70;;;;;;;;;;5114680;28;20940;-77
2022/04/19 10:00:14;;;;;;;0.70;0.60;;;;;;;;;;5095606;28;20461;-73
2022/04/19 10:08:19;;;;;;;1.43;0.80;;;;;;;;;;5113021;27;20464;-75
2022/04/19 10:10:47;;;;;;;1.00;0.90;;;;;;;;;;5084117;28;20452;-76
2022/04/19 10:13:17;;;;;;;1.20;1.10;;;;;;;;;;5112712;27;20433;-75
2022/04/19 10:15:45;;;;;;;1.03;0.93;;;;;;;;;;5095092;28;20433;-75
2022/04/19 10:18:12;;;;;;;2.20;0.73;;;;;;;;;;5115614;28;20432;-77
2022/04/19 10:20:41;;;;;;;0.70;0.50;;;;;;;;;;5115229;28;20453;-76
2022/04/19 10:23:09;;;;;;;1.00;0.87;;;;;;;;;;5099235;28;20925;-75
2022/04/19 10:25:43;;;;;;;0.80;0.70;;;;;;;;;;5095005;28;20536;-77
2022/04/19 10:28:10;;;;;;;0.70;0.50;;;;;;;;;;5095098;28;20479;-77
2022/04/19 10:30:37;;;;;;;;;;;;;;;;;;5096760;28;20273;-78
2022/04/19 10:33:23;;;;;;;0.80;0.70;;;;;;;;;;5101178;28;20213;-78
2022/04/19 10:36:14;;;;;;;0.93;0.83;;;;;;;;;;5113142;28;20445;-76
2022/04/19 10:38:44;;;;;;;2.53;0.90;;;;;;;;;;5082267;28;21038;-77
2022/04/19 10:41:27;;;;;;;0.70;0.60;;;;;;;;;;5115536;28;20468;-77
2022/04/19 10:44:13;;;;;;;0.80;0.60;;;;;;;;;;5097139;28;20811;-76
2022/04/19 10:46:40;;;;;;;1.03;0.80;;;;;;;;;;5102395;28;20457;-77
2022/04/19 10:49:23;;;;;;;1.33;1.23;;;;;;;;;;5101786;28;20437;-76
2022/04/19 10:51:52;;;;;;;0.70;0.60;;;;;;;;;;5116137;28;20506;-76
2022/04/19 10:54:46;;;;;;;0.70;0.70;;;;;;;;;;5098630;28;20437;-77
2022/04/19 11:00:21;;;;;;;0.70;0.60;;;;;;;;;;4995347;28;20828;-76
2022/04/19 11:03:09;;;;;;;0.90;0.70;;;;;;;;;;4995910;28;20540;-76
2022/04/19 11:05:41;;;;;;;0.70;0.50;;;;;;;;;;5055874;28;20442;-77
2022/04/19 11:08:37;;;;;;;0.70;0.50;;;;;;;;;;5108548;27;20449;-75
2022/04/19 11:11:21;;;;;;;0.70;0.60;;;;;;;;;;5071209;28;20520;-75
2022/04/19 11:14:23;;;;;;;0.73;0.60;;;;;;;;;;5097961;28;20428;-74
2022/04/19 11:16:51;;;;;;;4.03;1.23;;;;;;;;;;5103124;28;20515;-76
2022/04/19 11:19:19;;;;;;;0.80;0.70;;;;;;;;;;5118873;28;20755;-75
2022/04/19 11:21:54;;;;;;;0.73;0.60;;;;;;;;;;5111517;28;20921;-78
2022/04/19 11:24:40;;;;;;;1.90;0.93;;;;;;;;;;5102392;28;20441;-78
2022/04/19 11:27:07;;;;;;;0.70;0.60;;;;;;;;;;5116204;28;20421;-77
2022/04/19 11:29:47;;;;;;;0.90;0.70;;;;;;;;;;5098245;28;20489;-78
2022/04/19 11:32:19;;;;;;;0.80;0.80;;;;;;;;;;5131260;27;20844;-77
2022/04/19 11:34:56;;;;;;;1.10;1.00;;;;;;;;;;5099503;28;20428;-76
2022/04/19 11:37:24;;;;;;;0.80;0.70;;;;;;;;;;5100454;28;20496;-77
2022/04/19 11:48:30;;;;;;;1.10;1.00;;;;;;;;;;5117830;28;20433;-76
2022/04/19 11:51:07;;;;;;;0.87;0.83;;;;;;;;;;5081895;28;20461;-76
2022/04/19 11:53:33;;;;;;;0.80;0.70;;;;;;;;;;5097951;28;20459;-77
2022/04/19 11:56:03;;;;;;;0.70;0.60;;;;;;;;;;5098513;28;20504;-75
2022/04/19 11:58:30;;;;;;;;;;;;;;;;;;5081922;28;20080;-70
2022/04/19 12:01:01;;;;;;;5.40;1.40;;;;;;;;;;5116698;28;20969;-74
2022/04/19 12:03:29;;;;;;;0.70;0.60;;;;;;;;;;5116267;28;20191;-74
2022/04/19 12:06:05;;;;;;;1.07;0.97;;;;;;;;;;5081909;28;20457;-73
2022/04/19 12:08:33;;;;;;;0.80;0.70;;;;;;;;;;5097877;28;20457;-74
2022/04/19 12:11:02;;;;;;;0.77;0.70;;;;;;;;;;5095905;28;20422;-75
2022/04/19 12:13:29;;;;;;;0.80;0.80;;;;;;;;;;5061334;28;20498;-72
2022/04/19 12:15:56;;;;;;;1.00;0.90;;;;;;;;;;5092554;28;20987;-74
2022/04/19 12:18:35;;;;;;;0.80;0.70;;;;;;;;;;5078716;28;20460;-74
2022/04/19 12:21:06;;;;;;;0.83;0.83;;;;;;;;;;5133592;27;20480;-73
2022/04/19 12:23:34;;;;;;;0.80;0.80;;;;;;;;;;5119070;28;20400;-73
2022/04/19 12:26:03;;;;;;;0.90;0.63;;;;;;;;;;5118954;28;20926;-75
2022/04/19 12:28:34;;;;;;;0.90;0.90;;;;;;;;;;5129833;27;20438;-74
2022/04/19 12:31:02;;;;;;;1.47;1.20;;;;;;;;;;5114489;28;20437;-73
2022/04/19 12:33:28;;;;;;;0.80;0.80;;;;;;;;;;5097949;28;20449;-72
2022/04/19 12:35:58;;;;;;;0.70;0.60;;;;;;;;;;5081039;28;20970;-72
2022/04/19 12:38:28;;;;;;;0.80;0.77;;;;;;;;;;5079801;28;20816;-71
2022/04/19 12:40:55;;;;;;;0.80;0.70;;;;;;;;;;5116242;28;20464;-74
2022/04/19 12:43:37;;;;;;;1.10;1.00;;;;;;;;;;5079940;28;20441;-72
2022/04/19 12:46:04;;;;;;;0.70;0.60;;;;;;;;;;5108619;28;20481;-72
2022/04/19 12:48:32;;;;;;;0.80;0.70;;;;;;;;;;5129254;27;20437;-73
2022/04/19 12:51:01;;;;;;;0.70;0.60;;;;;;;;;;5115788;28;20865;-72
2022/04/19 12:53:27;;;;;;;0.80;0.70;;;;;;;;;;5112676;28;20494;-74
2022/04/19 12:59:04;;;;;;;0.80;0.70;;;;;;;;;;5094813;28;20406;-72
2022/04/19 13:01:31;;;;;;;0.80;0.70;;;;;;;;;;5097398;28;20476;-72
2022/04/19 13:03:58;;;;;;;0.70;0.60;;;;;;;;;;5097057;28;20435;-74
2022/04/19 13:12:19;;;;;;;0.70;0.60;;;;;;;;;;5115247;28;20418;-73
2022/04/19 13:14:49;;;;;;;0.70;0.60;;;;;;;;;;5115473;28;20444;-73
2022/04/19 13:17:23;;;;;;;1.00;0.80;;;;;;;;;;5115159;28;20474;-73
2022/04/19 13:19:54;;;;;;;0.80;0.70;;;;;;;;;;5111226;28;20421;-73
2022/04/19 13:22:23;;;;;;;0.70;0.50;;;;;;;;;;5113227;28;20560;-72
2022/04/19 13:24:52;;;;;;;0.70;0.60;;;;;;;;;;5115018;28;20414;-72
2022/04/19 13:27:18;;;;;;;0.70;0.60;;;;;;;;;;5132707;27;20409;-72
2022/04/19 13:29:45;;;;;;;0.80;0.73;;;;;;;;;;5113997;28;20472;-73
2022/04/19 13:32:13;;;;;;;1.10;1.00;;;;;;;;;;5096135;28;20421;-72
2022/04/19 13:34:39;;;;;;;0.80;0.60;;;;;;;;;;5111949;28;20830;-73
2022/04/19 13:37:09;;;;;;;0.80;0.70;;;;;;;;;;5093342;28;20479;-74
2022/04/19 13:39:37;;;;;;;0.70;0.60;;;;;;;;;;5128614;27;20445;-72
2022/04/19 13:42:04;;;;;;;1.20;1.10;;;;;;;;;;5129065;27;21208;-72
2022/04/19 13:44:30;;;;;;;0.80;0.70;;;;;;;;;;5113763;28;20429;-72
2022/04/19 13:46:57;;;;;;;2.50;0.97;;;;;;;;;;5093696;28;20509;-72
2022/04/19 13:49:35;;;;;;;0.80;0.60;;;;;;;;;;5112281;28;20424;-74
2022/04/19 13:52:05;;;;;;;0.80;0.60;;;;;;;;;;5113747;28;20957;-72
2022/04/19 13:54:32;;;;;;;0.80;0.70;;;;;;;;;;5112394;28;20490;-72
2022/04/19 13:57:02;;;;;;;0.80;0.60;;;;;;;;;;5095004;28;20447;-73
2022/04/19 13:59:31;;;;;;;0.80;0.70;;;;;;;;;;5112217;28;20474;-73
2022/04/19 14:01:57;;;;;;;1.00;0.87;;;;;;;;;;5094858;28;20465;-73
2022/04/19 14:04:25;;;;;;;0.73;0.60;;;;;;;;;;5112526;28;20432;-73
2022/04/19 14:06:53;;;;;;;0.80;0.60;;;;;;;;;;5112656;28;20498;-74
2022/04/19 14:09:24;;;;;;;0.90;0.80;;;;;;;;;;5128526;27;20441;-73
2022/04/19 14:11:51;;;;;;;0.80;0.70;;;;;;;;;;5094481;28;20410;-73
2022/04/19 14:14:19;;;;;;;0.90;0.90;;;;;;;;;;5113692;28;20437;-72
2022/04/19 14:16:47;;;;;;;0.80;0.70;;;;;;;;;;5113281;28;20571;-72
2022/04/19 14:19:14;;;;;;;0.80;0.80;;;;;;;;;;5094956;28;20779;-73
2022/04/19 14:21:42;;;;;;;0.80;0.73;;;;;;;;;;5094971;28;20568;-71
2022/04/19 14:24:14;;;;;;;0.80;0.70;;;;;;;;;;5097459;28;20442;-72
2022/04/19 14:26:41;;;;;;;0.70;0.60;;;;;;;;;;5113512;28;20476;-73
2022/04/19 14:34:45;;;;;;;1.00;0.90;;;;;;;;;;5095597;28;20441;-72
2022/04/19 14:37:12;;;;;;;0.70;0.60;;;;;;;;;;5096587;28;21289;-74
2022/04/19 14:39:39;;;;;;;0.80;0.63;;;;;;;;;;5113229;28;20445;-73
2022/04/19 14:42:06;;;;;;;0.70;0.60;;;;;;;;;;5111271;28;20465;-74
2022/04/19 14:44:34;;;;;;;0.80;0.70;;;;;;;;;;5113383;28;20944;-74
2022/04/19 14:47:06;;;;;;;0.80;0.80;;;;;;;;;;5088814;28;20453;-73
2022/04/19 14:49:33;;;;;;;0.80;0.70;;;;;;;;;;5112140;28;20524;-74
2022/04/19 14:52:14;;;;;;;0.70;0.60;;;;;;;;;;5100754;28;20460;-75
2022/04/19 14:54:42;;;;;;;0.73;0.67;;;;;;;;;;5114805;28;20964;-73
2022/04/19 14:57:09;;;;;;;0.80;0.70;;;;;;;;;;5113130;28;20478;-73
2022/04/19 14:59:36;;;;;;;0.70;0.60;;;;;;;;;;5100100;28;20439;-72
2022/04/19 15:02:09;;;;;;;1.00;0.70;;;;;;;;;;5112538;28;20547;-73
2022/04/19 15:04:35;;;;;;;0.73;0.60;;;;;;;;;;5107778;28;20460;-73
2022/04/19 15:07:02;;;;;;;0.80;0.70;;;;;;;;;;5108280;28;20453;-74
2022/04/19 15:09:30;;;;;;;1.07;0.97;;;;;;;;;;5099903;28;20957;-72
2022/04/19 15:11:58;;;;;;;0.70;0.60;;;;;;;;;;5111288;28;20421;-72
2022/04/19 15:14:24;;;;;;;0.80;0.73;;;;;;;;;;5112206;28;20437;-74
2022/04/19 15:16:53;;;;;;;0.70;0.63;;;;;;;;;;5112429;28;20413;-73
2022/04/19 15:19:24;;;;;;;0.80;0.70;;;;;;;;;;5107776;28;20432;-73
2022/04/19 15:21:54;;;;;;;1.70;1.60;;;;;;;;;;5094110;28;20461;-74
2022/04/19 15:24:24;;;;;;;0.80;0.80;;;;;;;;;;5095482;28;20782;-72
2022/04/19 15:26:52;;;;;;;0.70;0.60;;;;;;;;;;5078116;28;20444;-72
2022/04/19 15:29:24;;;;;;;0.80;0.80;;;;;;;;;;5114461;28;20448;-72
2022/04/19 15:31:54;;;;;;;0.80;0.60;;;;;;;;;;5099114;28;20842;-72
2022/04/19 15:34:24;;;;;;;0.80;0.67;;;;;;;;;;5098892;28;20544;-73
2022/04/19 15:36:56;;;;;;;0.80;0.80;;;;;;;;;;5114442;28;20503;-73
2022/04/19 15:39:24;;;;;;;0.73;0.70;;;;;;;;;;5098560;28;20413;-72
2022/04/19 15:41:50;;;;;;;0.70;0.60;;;;;;;;;;5098797;28;20445;-72
2022/04/19 15:44:17;;;;;;;0.70;0.60;;;;;;;;;;5097963;28;20469;-71
2022/04/19 15:46:44;;;;;;;0.90;0.80;;;;;;;;;;5094619;28;20489;-73
2022/04/19 15:49:12;;;;;;;2.37;2.13;;;;;;;;;;5096127;28;20767;-72
2022/04/19 15:51:44;;;;;;;0.77;0.63;;;;;;;;;;5117028;28;20544;-73
2022/04/19 15:54:12;;;;;;;0.90;0.80;;;;;;;;;;5083912;28;20412;-72